La Pobla de Vallbona, Spain
Current Conditions -  °F | °C
As of 12:00 AM on Friday 24 Oct 2014 (Local Time) from LEBT Reporting Station
Clear Clear  
Wind Chill: 66°   Ceiling: Unl
Heat Index: 66°   Visibility: 6mi
Dew Point: 36°   Wind: 6mph
Humidity: 32%   Direction: 310°NW
Pressure: 30.03"   Gusts: NA
Location:  39.6°N, 0.55°W
Report Text: LEBT 232200Z AUTO 31005KT CAVOK 19/02 Q1017
Loading
Personal Weather Stations






























Interactive Weather Map
Tropical Storm Tracking
New forecast layout! Learn more

10-Day Weather Forecast

Advertisements
Track Severe Weather on mobile